Overview Statistics Trail Chart Weather Telemetry Raw packets
 

This is the latest recevied weather packets stored in our database for station/object N0QV. If no packets are shown the sender has not sent any weather packets the latest 10 day(s).

<< 57 58 59 60 61 62 63 >>
Time Temp. Humidity Pressure Rain* Wind** Luminosity Snow
1788280442 28.89° C 66% 1015.2 hPa 0 mm - 373 W/m² -
1788280137 28.89° C 66% 1015.2 hPa 0 mm - 390 W/m² -
1788279836 28.89° C 65% 1015 hPa 0 mm - 432 W/m² -
1788279530 28.89° C 64% 1015 hPa 0 mm - 472 W/m² -
1788279229 28.89° C 63% 1015.1 hPa 0 mm - 649 W/m² -
1788278924 28.33° C 65% 1015.2 hPa 0 mm - 502 W/m² -
1788278621 28.89° C 65% 1015.2 hPa 0 mm - 657 W/m² -
1788278320 28.89° C 65% 1015.2 hPa 0 mm - 655 W/m² -
1788278015 29.44° C 63% 1015.3 hPa 0 mm - 629 W/m² -
1788277712 29.44° C 63% 1015.2 hPa 0 mm - 608 W/m² -
1788277411 28.89° C 64% 1015.1 hPa 0 mm - 591 W/m² -
1788277111 27.78° C 68% 1015.1 hPa 0 mm - 515 W/m² -
1788276806 28.33° C 69% 1015.3 hPa 0 mm - 439 W/m² -
1788276505 27.78° C 69% 1015.3 hPa 0 mm - 452 W/m² -
1788276204 27.22° C 71% 1015 hPa 0 mm - 493 W/m² -
1788275900 26.67° C 70% 1015.3 hPa 0 mm - 481 W/m² -
1788275594 27.78° C 69% 1015.4 hPa 0 mm - 248 W/m² -
1788275294 27.78° C 68% 1014.9 hPa 0 mm - 442 W/m² -
1788274992 27.22° C 67% 1015 hPa 0 mm - 406 W/m² -
1788274690 27.22° C 67% 1015 hPa 0 mm - 348 W/m² -
1788274389 26.67° C 69% 1015 hPa 0 mm - 330 W/m² -
1788274085 27.22° C 68% 1015.2 hPa 0 mm - 390 W/m² -
1788273781 26.67° C 69% 1015.1 hPa 0 mm - 212 W/m² -
1788273476 26.11° C 70% 1015.2 hPa 0 mm - 111 W/m² -
1788273172 25.56° C 73% 1015.2 hPa 0 mm - 211 W/m² -

* Rain latest hour (hover to see other rain measurements)
** Current wind speed in m/s (hover to see current wind gust speed)